sensor_id;sensor_type;location;lat;lon;timestamp;P1;durP1;ratioP1;P2;durP2;ratioP2
80366;SDS011;69680;42.660;23.366;2023-04-25T11:38:07;11.82;;;3.60;;
80366;SDS011;69680;42.660;23.366;2023-04-25T11:40:33;10.77;;;3.50;;
80366;SDS011;69680;42.660;23.366;2023-04-25T11:43:01;13.25;;;3.67;;
80366;SDS011;69680;42.660;23.366;2023-04-25T11:45:26;10.43;;;3.15;;
80366;SDS011;69680;42.660;23.366;2023-04-25T11:47:54;10.40;;;3.42;;
80366;SDS011;69680;42.660;23.366;2023-04-25T11:50:19;11.73;;;3.30;;
80366;SDS011;69680;42.660;23.366;2023-04-25T11:52:46;9.85;;;2.78;;
80366;SDS011;69680;42.660;23.366;2023-04-25T11:55:13;12.40;;;3.15;;
80366;SDS011;69680;42.660;23.366;2023-04-25T11:57:45;11.13;;;3.22;;
80366;SDS011;69680;42.660;23.366;2023-04-25T12:00:19;10.00;;;3.35;;
80366;SDS011;69680;42.660;23.366;2023-04-25T12:02:46;13.43;;;3.40;;
80366;SDS011;69680;42.660;23.366;2023-04-25T12:05:14;11.85;;;3.47;;
80366;SDS011;69680;42.660;23.366;2023-04-25T12:07:45;9.30;;;3.00;;
80366;SDS011;69680;42.660;23.366;2023-04-25T12:10:12;7.32;;;2.90;;
80366;SDS011;69680;42.660;23.366;2023-04-25T12:12:42;9.02;;;3.17;;
80366;SDS011;69680;42.660;23.366;2023-04-25T12:17:44;9.85;;;3.13;;
80366;SDS011;69680;42.660;23.366;2023-04-25T12:20:17;6.88;;;3.03;;
80366;SDS011;69680;42.660;23.366;2023-04-25T12:22:46;8.25;;;2.60;;
80366;SDS011;69680;42.660;23.366;2023-04-25T12:25:34;8.00;;;2.80;;
80366;SDS011;69680;42.660;23.366;2023-04-25T12:28:24;6.50;;;3.03;;
80366;SDS011;69680;42.660;23.366;2023-04-25T12:33:33;9.18;;;2.63;;
80366;SDS011;69680;42.660;23.366;2023-04-25T12:36:00;7.22;;;2.70;;
80366;SDS011;69680;42.660;23.366;2023-04-25T12:38:37;7.28;;;2.83;;
80366;SDS011;69680;42.660;23.366;2023-04-25T12:41:03;7.05;;;2.90;;
80366;SDS011;69680;42.660;23.366;2023-04-25T12:43:29;7.60;;;2.60;;
80366;SDS011;69680;42.660;23.366;2023-04-25T12:45:55;8.23;;;2.78;;
80366;SDS011;69680;42.660;23.366;2023-04-25T12:48:22;6.57;;;2.35;;
80366;SDS011;69680;42.660;23.366;2023-04-25T12:50:48;5.53;;;2.63;;
80366;SDS011;69680;42.660;23.366;2023-04-25T12:53:19;8.25;;;2.60;;
80366;SDS011;69680;42.660;23.366;2023-04-25T12:55:46;7.40;;;2.80;;
80366;SDS011;69680;42.660;23.366;2023-04-25T12:58:15;7.10;;;2.60;;
80366;SDS011;69680;42.660;23.366;2023-04-25T13:00:42;5.60;;;2.58;;
80366;SDS011;69680;42.660;23.366;2023-04-25T13:03:11;6.00;;;2.75;;
80366;SDS011;69680;42.660;23.366;2023-04-25T13:05:37;7.05;;;2.47;;
80366;SDS011;69680;42.660;23.366;2023-04-25T13:08:04;6.30;;;2.47;;
80366;SDS011;69680;42.660;23.366;2023-04-25T13:10:30;5.85;;;2.60;;
80366;SDS011;69680;42.660;23.366;2023-04-25T13:12:56;7.20;;;2.67;;
80366;SDS011;69680;42.660;23.366;2023-04-25T13:15:22;7.00;;;2.10;;
80366;SDS011;69680;42.660;23.366;2023-04-25T13:17:48;6.10;;;1.95;;
80366;SDS011;69680;42.660;23.366;2023-04-25T13:20:13;7.50;;;2.80;;
80366;SDS011;69680;42.660;23.366;2023-04-25T13:22:40;8.00;;;3.60;;
80366;SDS011;69680;42.660;23.366;2023-04-25T13:25:07;6.13;;;2.53;;
80366;SDS011;69680;42.660;23.366;2023-04-25T13:27:33;9.05;;;2.60;;
80366;SDS011;69680;42.660;23.366;2023-04-25T13:30:00;10.63;;;2.50;;
80366;SDS011;69680;42.660;23.366;2023-04-25T13:32:32;6.50;;;2.47;;
80366;SDS011;69680;42.660;23.366;2023-04-25T13:34:58;7.38;;;2.28;;
80366;SDS011;69680;42.660;23.366;2023-04-25T13:37:24;5.72;;;2.85;;
80366;SDS011;69680;42.660;23.366;2023-04-25T13:39:50;6.00;;;2.30;;
80366;SDS011;69680;42.660;23.366;2023-04-25T13:42:17;8.35;;;2.53;;
80366;SDS011;69680;42.660;23.366;2023-04-25T13:44:42;8.15;;;2.40;;
80366;SDS011;69680;42.660;23.366;2023-04-25T13:47:08;6.53;;;2.53;;
80366;SDS011;69680;42.660;23.366;2023-04-25T13:49:34;8.82;;;2.63;;
80366;SDS011;69680;42.660;23.366;2023-04-25T13:51:59;6.90;;;2.30;;
80366;SDS011;69680;42.660;23.366;2023-04-25T13:54:25;7.45;;;2.50;;
80366;SDS011;69680;42.660;23.366;2023-04-25T13:56:51;3.80;;;1.80;;
80366;SDS011;69680;42.660;23.366;2023-04-25T13:59:17;6.75;;;2.30;;
80366;SDS011;69680;42.660;23.366;2023-04-25T14:01:43;6.68;;;2.83;;
80366;SDS011;69680;42.660;23.366;2023-04-25T14:04:08;6.82;;;2.20;;
80366;SDS011;69680;42.660;23.366;2023-04-25T14:06:34;18.95;;;2.67;;
80366;SDS011;69680;42.660;23.366;2023-04-25T14:09:00;7.85;;;2.17;;
80366;SDS011;69680;42.660;23.366;2023-04-25T14:11:26;7.97;;;2.65;;
80366;SDS011;69680;42.660;23.366;2023-04-25T14:13:52;5.90;;;2.38;;
80366;SDS011;69680;42.660;23.366;2023-04-25T14:16:17;8.02;;;2.03;;
80366;SDS011;69680;42.660;23.366;2023-04-25T14:18:43;4.95;;;2.17;;
80366;SDS011;69680;42.660;23.366;2023-04-25T14:21:09;6.55;;;2.20;;
80366;SDS011;69680;42.660;23.366;2023-04-25T14:23:35;7.65;;;2.20;;
80366;SDS011;69680;42.660;23.366;2023-04-25T14:26:00;7.13;;;2.00;;
80366;SDS011;69680;42.660;23.366;2023-04-25T14:28:27;5.97;;;2.90;;
80366;SDS011;69680;42.660;23.366;2023-04-25T14:30:53;5.43;;;2.13;;
80366;SDS011;69680;42.660;23.366;2023-04-25T14:33:18;5.85;;;2.25;;
80366;SDS011;69680;42.660;23.366;2023-04-25T14:35:44;5.82;;;1.77;;
80366;SDS011;69680;42.660;23.366;2023-04-25T14:38:10;5.68;;;2.00;;
80366;SDS011;69680;42.660;23.366;2023-04-25T14:40:36;5.45;;;2.17;;
80366;SDS011;69680;42.660;23.366;2023-04-25T14:43:03;5.20;;;2.22;;
80366;SDS011;69680;42.660;23.366;2023-04-25T14:45:28;8.18;;;2.00;;
80366;SDS011;69680;42.660;23.366;2023-04-25T14:47:54;5.85;;;1.90;;
80366;SDS011;69680;42.660;23.366;2023-04-25T14:50:20;4.70;;;2.22;;
80366;SDS011;69680;42.660;23.366;2023-04-25T14:52:46;7.22;;;2.75;;
80366;SDS011;69680;42.660;23.366;2023-04-25T14:55:13;28.98;;;2.45;;
80366;SDS011;69680;42.660;23.366;2023-04-25T14:57:39;5.25;;;2.15;;
80366;SDS011;69680;42.660;23.366;2023-04-25T15:00:05;6.35;;;2.65;;
80366;SDS011;69680;42.660;23.366;2023-04-25T15:02:34;5.80;;;2.28;;
80366;SDS011;69680;42.660;23.366;2023-04-25T15:05:01;9.18;;;2.72;;
80366;SDS011;69680;42.660;23.366;2023-04-25T15:07:28;6.90;;;2.72;;
80366;SDS011;69680;42.660;23.366;2023-04-25T15:09:54;6.32;;;2.53;;
80366;SDS011;69680;42.660;23.366;2023-04-25T15:12:21;16.40;;;2.90;;
80366;SDS011;69680;42.660;23.366;2023-04-25T15:14:47;13.63;;;2.90;;
80366;SDS011;69680;42.660;23.366;2023-04-25T15:17:12;8.85;;;2.85;;
80366;SDS011;69680;42.660;23.366;2023-04-25T15:19:39;9.73;;;2.88;;
80366;SDS011;69680;42.660;23.366;2023-04-25T15:22:05;8.57;;;2.33;;
80366;SDS011;69680;42.660;23.366;2023-04-25T15:24:31;15.43;;;2.72;;
80366;SDS011;69680;42.660;23.366;2023-04-25T15:26:57;7.97;;;2.50;;
80366;SDS011;69680;42.660;23.366;2023-04-25T15:29:23;21.98;;;2.38;;
80366;SDS011;69680;42.660;23.366;2023-04-25T15:31:52;8.63;;;2.78;;
80366;SDS011;69680;42.660;23.366;2023-04-25T15:34:18;15.30;;;2.90;;
80366;SDS011;69680;42.660;23.366;2023-04-25T15:36:43;16.27;;;2.63;;
80366;SDS011;69680;42.660;23.366;2023-04-25T15:39:10;6.55;;;2.30;;
80366;SDS011;69680;42.660;23.366;2023-04-25T15:41:36;7.03;;;2.33;;
80366;SDS011;69680;42.660;23.366;2023-04-25T15:44:02;11.88;;;3.05;;
80366;SDS011;69680;42.660;23.366;2023-04-25T15:46:28;10.95;;;2.42;;
80366;SDS011;69680;42.660;23.366;2023-04-25T15:48:55;12.30;;;2.67;;
80366;SDS011;69680;42.660;23.366;2023-04-25T15:51:21;21.35;;;3.22;;
80366;SDS011;69680;42.660;23.366;2023-04-25T15:53:46;12.45;;;2.78;;
80366;SDS011;69680;42.660;23.366;2023-04-25T15:56:12;10.20;;;2.50;;
80366;SDS011;69680;42.660;23.366;2023-04-25T15:58:38;12.82;;;2.50;;
80366;SDS011;69680;42.660;23.366;2023-04-25T16:01:03;10.55;;;2.92;;
80366;SDS011;69680;42.660;23.366;2023-04-25T16:03:29;12.43;;;3.10;;
80366;SDS011;69680;42.660;23.366;2023-04-25T16:05:55;14.77;;;2.95;;
80366;SDS011;69680;42.660;23.366;2023-04-25T16:08:21;9.60;;;2.75;;
80366;SDS011;69680;42.660;23.366;2023-04-25T16:10:47;7.55;;;2.45;;
80366;SDS011;69680;42.660;23.366;2023-04-25T16:13:13;12.13;;;2.70;;
80366;SDS011;69680;42.660;23.366;2023-04-25T16:15:39;13.60;;;2.60;;
80366;SDS011;69680;42.660;23.366;2023-04-25T16:18:04;11.95;;;2.53;;
80366;SDS011;69680;42.660;23.366;2023-04-25T16:20:30;10.10;;;2.97;;
80366;SDS011;69680;42.660;23.366;2023-04-25T16:22:56;9.27;;;2.70;;
80366;SDS011;69680;42.660;23.366;2023-04-25T16:25:22;13.70;;;2.75;;
80366;SDS011;69680;42.660;23.366;2023-04-25T16:27:48;8.57;;;2.72;;
80366;SDS011;69680;42.660;23.366;2023-04-25T16:30:13;9.60;;;2.42;;
80366;SDS011;69680;42.660;23.366;2023-04-25T16:32:39;7.53;;;2.33;;
80366;SDS011;69680;42.660;23.366;2023-04-25T16:35:05;16.23;;;3.25;;
80366;SDS011;69680;42.660;23.366;2023-04-25T16:37:31;8.52;;;2.13;;
80366;SDS011;69680;42.660;23.366;2023-04-25T16:39:57;7.00;;;2.40;;
80366;SDS011;69680;42.660;23.366;2023-04-25T16:42:23;6.75;;;2.60;;
80366;SDS011;69680;42.660;23.366;2023-04-25T16:44:49;8.35;;;3.28;;
80366;SDS011;69680;42.660;23.366;2023-04-25T16:47:14;9.48;;;2.15;;
80366;SDS011;69680;42.660;23.366;2023-04-25T16:49:40;6.13;;;2.47;;
80366;SDS011;69680;42.660;23.366;2023-04-25T16:52:06;8.10;;;2.22;;
80366;SDS011;69680;42.660;23.366;2023-04-25T16:54:32;8.90;;;3.10;;
80366;SDS011;69680;42.660;23.366;2023-04-25T16:56:57;7.55;;;2.85;;
80366;SDS011;69680;42.660;23.366;2023-04-25T16:59:23;6.65;;;2.60;;
80366;SDS011;69680;42.660;23.366;2023-04-25T17:01:49;12.13;;;2.70;;
80366;SDS011;69680;42.660;23.366;2023-04-25T17:04:15;8.07;;;2.78;;
80366;SDS011;69680;42.660;23.366;2023-04-25T17:06:41;10.70;;;2.63;;
80366;SDS011;69680;42.660;23.366;2023-04-25T17:09:07;7.13;;;2.40;;
80366;SDS011;69680;42.660;23.366;2023-04-25T17:11:32;9.75;;;2.55;;
80366;SDS011;69680;42.660;23.366;2023-04-25T17:13:58;7.32;;;2.60;;
80366;SDS011;69680;42.660;23.366;2023-04-25T17:16:28;12.48;;;2.30;;
80366;SDS011;69680;42.660;23.366;2023-04-25T17:18:59;7.60;;;2.63;;
80366;SDS011;69680;42.660;23.366;2023-04-25T17:21:24;9.40;;;2.25;;
80366;SDS011;69680;42.660;23.366;2023-04-25T17:23:50;11.20;;;2.63;;
80366;SDS011;69680;42.660;23.366;2023-04-25T17:26:16;13.52;;;3.05;;
80366;SDS011;69680;42.660;23.366;2023-04-25T17:28:42;8.68;;;2.67;;
80366;SDS011;69680;42.660;23.366;2023-04-25T17:31:12;10.05;;;2.63;;
80366;SDS011;69680;42.660;23.366;2023-04-25T17:33:39;13.98;;;2.85;;
80366;SDS011;69680;42.660;23.366;2023-04-25T17:36:05;13.25;;;3.35;;
80366;SDS011;69680;42.660;23.366;2023-04-25T17:38:31;9.90;;;3.22;;
80366;SDS011;69680;42.660;23.366;2023-04-25T17:40:58;12.00;;;3.05;;
80366;SDS011;69680;42.660;23.366;2023-04-25T17:43:24;12.05;;;2.63;;
80366;SDS011;69680;42.660;23.366;2023-04-25T17:45:51;10.55;;;3.17;;
80366;SDS011;69680;42.660;23.366;2023-04-25T17:48:17;11.15;;;2.30;;
80366;SDS011;69680;42.660;23.366;2023-04-25T17:50:43;8.10;;;2.90;;
80366;SDS011;69680;42.660;23.366;2023-04-25T17:53:09;6.65;;;2.45;;
80366;SDS011;69680;42.660;23.366;2023-04-25T17:55:35;10.45;;;2.47;;
80366;SDS011;69680;42.660;23.366;2023-04-25T17:58:00;7.57;;;2.50;;
80366;SDS011;69680;42.660;23.366;2023-04-25T18:00:26;7.75;;;2.25;;
80366;SDS011;69680;42.660;23.366;2023-04-25T18:02:52;7.53;;;2.83;;
80366;SDS011;69680;42.660;23.366;2023-04-25T18:05:17;10.30;;;2.42;;
80366;SDS011;69680;42.660;23.366;2023-04-25T18:07:43;6.07;;;2.42;;
80366;SDS011;69680;42.660;23.366;2023-04-25T18:10:10;5.53;;;2.63;;
80366;SDS011;69680;42.660;23.366;2023-04-25T18:12:36;8.02;;;3.05;;
80366;SDS011;69680;42.660;23.366;2023-04-25T18:15:03;21.13;;;3.13;;
80366;SDS011;69680;42.660;23.366;2023-04-25T18:17:31;14.02;;;3.13;;
80366;SDS011;69680;42.660;23.366;2023-04-25T18:19:58;17.55;;;3.70;;
80366;SDS011;69680;42.660;23.366;2023-04-25T18:22:26;15.00;;;3.42;;
80366;SDS011;69680;42.660;23.366;2023-04-25T18:24:52;10.35;;;3.38;;
80366;SDS011;69680;42.660;23.366;2023-04-25T18:27:18;10.55;;;3.42;;
80366;SDS011;69680;42.660;23.366;2023-04-25T18:29:44;15.05;;;3.15;;
80366;SDS011;69680;42.660;23.366;2023-04-25T18:32:10;13.10;;;3.67;;
80366;SDS011;69680;42.660;23.366;2023-04-25T18:34:35;11.43;;;3.65;;
80366;SDS011;69680;42.660;23.366;2023-04-25T18:37:02;8.40;;;2.67;;
80366;SDS011;69680;42.660;23.366;2023-04-25T18:39:27;11.45;;;3.28;;
80366;SDS011;69680;42.660;23.366;2023-04-25T18:41:53;12.48;;;3.10;;
80366;SDS011;69680;42.660;23.366;2023-04-25T18:44:21;11.15;;;3.08;;
80366;SDS011;69680;42.660;23.366;2023-04-25T18:46:47;13.20;;;3.28;;
80366;SDS011;69680;42.660;23.366;2023-04-25T18:49:13;7.63;;;3.13;;
80366;SDS011;69680;42.660;23.366;2023-04-25T18:51:39;11.00;;;3.13;;
80366;SDS011;69680;42.660;23.366;2023-04-25T18:54:05;9.07;;;2.92;;
80366;SDS011;69680;42.660;23.366;2023-04-25T18:56:34;7.47;;;2.75;;
80366;SDS011;69680;42.660;23.366;2023-04-25T18:59:00;7.07;;;2.53;;
80366;SDS011;69680;42.660;23.366;2023-04-25T19:01:26;11.95;;;3.15;;
80366;SDS011;69680;42.660;23.366;2023-04-25T19:03:52;9.65;;;3.03;;
80366;SDS011;69680;42.660;23.366;2023-04-25T19:06:21;9.10;;;2.45;;
80366;SDS011;69680;42.660;23.366;2023-04-25T19:08:50;8.30;;;2.45;;
80366;SDS011;69680;42.660;23.366;2023-04-25T19:11:17;6.93;;;2.90;;
80366;SDS011;69680;42.660;23.366;2023-04-25T19:13:44;9.35;;;2.70;;
80366;SDS011;69680;42.660;23.366;2023-04-25T19:16:10;9.05;;;2.70;;
80366;SDS011;69680;42.660;23.366;2023-04-25T19:18:36;10.45;;;2.53;;
80366;SDS011;69680;42.660;23.366;2023-04-25T19:21:02;11.57;;;2.90;;
80366;SDS011;69680;42.660;23.366;2023-04-25T19:23:30;10.63;;;2.85;;
80366;SDS011;69680;42.660;23.366;2023-04-25T19:25:56;6.63;;;2.35;;
80366;SDS011;69680;42.660;23.366;2023-04-25T19:28:22;7.20;;;2.40;;
80366;SDS011;69680;42.660;23.366;2023-04-25T19:30:49;6.57;;;2.33;;
80366;SDS011;69680;42.660;23.366;2023-04-25T19:33:16;9.82;;;2.30;;
80366;SDS011;69680;42.660;23.366;2023-04-25T19:35:42;5.07;;;2.10;;
80366;SDS011;69680;42.660;23.366;2023-04-25T19:38:08;8.18;;;2.45;;
80366;SDS011;69680;42.660;23.366;2023-04-25T19:40:33;12.10;;;2.28;;
80366;SDS011;69680;42.660;23.366;2023-04-25T19:43:00;5.90;;;2.30;;
80366;SDS011;69680;42.660;23.366;2023-04-25T19:45:26;5.55;;;2.25;;
80366;SDS011;69680;42.660;23.366;2023-04-25T19:47:52;9.85;;;2.50;;
80366;SDS011;69680;42.660;23.366;2023-04-25T19:50:18;8.05;;;2.63;;
80366;SDS011;69680;42.660;23.366;2023-04-25T19:52:45;8.45;;;2.53;;
80366;SDS011;69680;42.660;23.366;2023-04-25T19:55:11;7.28;;;2.80;;
80366;SDS011;69680;42.660;23.366;2023-04-25T19:57:37;6.68;;;2.50;;
80366;SDS011;69680;42.660;23.366;2023-04-25T20:00:04;14.85;;;3.00;;
80366;SDS011;69680;42.660;23.366;2023-04-25T20:02:33;9.13;;;3.45;;
80366;SDS011;69680;42.660;23.366;2023-04-25T20:04:59;16.70;;;3.95;;
80366;SDS011;69680;42.660;23.366;2023-04-25T20:07:26;16.08;;;3.65;;
80366;SDS011;69680;42.660;23.366;2023-04-25T20:09:52;13.13;;;3.60;;
80366;SDS011;69680;42.660;23.366;2023-04-25T20:12:18;14.57;;;3.53;;
80366;SDS011;69680;42.660;23.366;2023-04-25T20:14:44;12.35;;;3.08;;
80366;SDS011;69680;42.660;23.366;2023-04-25T20:17:09;15.52;;;3.05;;
80366;SDS011;69680;42.660;23.366;2023-04-25T20:19:36;14.73;;;3.20;;
80366;SDS011;69680;42.660;23.366;2023-04-25T20:22:02;11.85;;;2.60;;
80366;SDS011;69680;42.660;23.366;2023-04-25T20:24:28;9.52;;;3.15;;
80366;SDS011;69680;42.660;23.366;2023-04-25T20:26:53;12.05;;;3.20;;
80366;SDS011;69680;42.660;23.366;2023-04-25T20:29:22;12.63;;;3.15;;
80366;SDS011;69680;42.660;23.366;2023-04-25T20:31:49;8.15;;;3.10;;
80366;SDS011;69680;42.660;23.366;2023-04-25T20:34:19;12.88;;;2.90;;
80366;SDS011;69680;42.660;23.366;2023-04-25T20:36:46;9.85;;;3.45;;
80366;SDS011;69680;42.660;23.366;2023-04-25T20:39:16;15.32;;;3.15;;
80366;SDS011;69680;42.660;23.366;2023-04-25T20:41:43;13.45;;;4.47;;
80366;SDS011;69680;42.660;23.366;2023-04-25T20:44:09;7.43;;;3.15;;
80366;SDS011;69680;42.660;23.366;2023-04-25T20:46:36;11.30;;;3.22;;
80366;SDS011;69680;42.660;23.366;2023-04-25T20:49:03;8.23;;;3.20;;
80366;SDS011;69680;42.660;23.366;2023-04-25T20:51:31;12.55;;;3.15;;
80366;SDS011;69680;42.660;23.366;2023-04-25T20:53:58;10.55;;;3.15;;
80366;SDS011;69680;42.660;23.366;2023-04-25T20:56:24;8.80;;;3.00;;
80366;SDS011;69680;42.660;23.366;2023-04-25T20:58:50;9.73;;;2.83;;
80366;SDS011;69680;42.660;23.366;2023-04-25T21:01:17;6.82;;;3.05;;
80366;SDS011;69680;42.660;23.366;2023-04-25T21:03:43;15.10;;;3.55;;
80366;SDS011;69680;42.660;23.366;2023-04-25T21:06:12;8.23;;;3.10;;
80366;SDS011;69680;42.660;23.366;2023-04-25T21:08:37;7.97;;;3.28;;
80366;SDS011;69680;42.660;23.366;2023-04-25T21:11:03;8.70;;;3.08;;
80366;SDS011;69680;42.660;23.366;2023-04-25T21:13:29;12.77;;;3.05;;
80366;SDS011;69680;42.660;23.366;2023-04-25T21:15:55;7.80;;;3.65;;
80366;SDS011;69680;42.660;23.366;2023-04-25T21:18:20;10.40;;;3.33;;
80366;SDS011;69680;42.660;23.366;2023-04-25T21:20:46;9.75;;;3.70;;
80366;SDS011;69680;42.660;23.366;2023-04-25T21:23:12;11.27;;;4.00;;
80366;SDS011;69680;42.660;23.366;2023-04-25T21:25:38;7.82;;;3.90;;
80366;SDS011;69680;42.660;23.366;2023-04-25T21:28:03;10.20;;;3.67;;
80366;SDS011;69680;42.660;23.366;2023-04-25T21:30:30;7.40;;;3.58;;
80366;SDS011;69680;42.660;23.366;2023-04-25T21:32:56;11.93;;;4.28;;
80366;SDS011;69680;42.660;23.366;2023-04-25T21:35:22;10.85;;;3.90;;
80366;SDS011;69680;42.660;23.366;2023-04-25T21:37:49;7.20;;;3.42;;
80366;SDS011;69680;42.660;23.366;2023-04-25T21:40:15;10.77;;;3.65;;
80366;SDS011;69680;42.660;23.366;2023-04-25T21:42:41;9.68;;;3.90;;
80366;SDS011;69680;42.660;23.366;2023-04-25T21:45:08;9.15;;;3.80;;
80366;SDS011;69680;42.660;23.366;2023-04-25T21:47:34;11.20;;;3.70;;
80366;SDS011;69680;42.660;23.366;2023-04-25T21:50:00;7.90;;;3.38;;
80366;SDS011;69680;42.660;23.366;2023-04-25T21:52:26;9.52;;;3.60;;
80366;SDS011;69680;42.660;23.366;2023-04-25T21:54:52;10.55;;;3.97;;
80366;SDS011;69680;42.660;23.366;2023-04-25T21:57:18;8.32;;;3.70;;
80366;SDS011;69680;42.660;23.366;2023-04-25T21:59:45;6.82;;;3.50;;
80366;SDS011;69680;42.660;23.366;2023-04-25T22:02:12;6.60;;;3.17;;
80366;SDS011;69680;42.660;23.366;2023-04-25T22:04:38;9.25;;;3.97;;
80366;SDS011;69680;42.660;23.366;2023-04-25T22:07:06;8.30;;;3.97;;
80366;SDS011;69680;42.660;23.366;2023-04-25T22:09:33;12.25;;;4.80;;
80366;SDS011;69680;42.660;23.366;2023-04-25T22:11:59;8.18;;;4.85;;
80366;SDS011;69680;42.660;23.366;2023-04-25T22:14:26;9.70;;;3.97;;
80366;SDS011;69680;42.660;23.366;2023-04-25T22:16:52;12.23;;;4.55;;
80366;SDS011;69680;42.660;23.366;2023-04-25T22:19:20;9.18;;;4.25;;
80366;SDS011;69680;42.660;23.366;2023-04-25T22:21:46;10.07;;;4.50;;
80366;SDS011;69680;42.660;23.366;2023-04-25T22:24:12;9.88;;;4.03;;
80366;SDS011;69680;42.660;23.366;2023-04-25T22:26:40;8.48;;;4.47;;
80366;SDS011;69680;42.660;23.366;2023-04-25T22:29:19;9.63;;;4.43;;
80366;SDS011;69680;42.660;23.366;2023-04-25T22:31:45;7.63;;;4.05;;
80366;SDS011;69680;42.660;23.366;2023-04-25T22:34:11;11.18;;;4.55;;
80366;SDS011;69680;42.660;23.366;2023-04-25T22:36:37;9.20;;;4.43;;
80366;SDS011;69680;42.660;23.366;2023-04-25T22:39:04;11.27;;;4.68;;
80366;SDS011;69680;42.660;23.366;2023-04-25T22:41:31;12.13;;;4.95;;
80366;SDS011;69680;42.660;23.366;2023-04-25T22:44:00;11.85;;;5.00;;
80366;SDS011;69680;42.660;23.366;2023-04-25T22:46:31;10.95;;;4.93;;
80366;SDS011;69680;42.660;23.366;2023-04-25T22:48:57;11.23;;;5.13;;
80366;SDS011;69680;42.660;23.366;2023-04-25T22:51:22;9.32;;;4.80;;
80366;SDS011;69680;42.660;23.366;2023-04-25T22:53:48;8.95;;;4.50;;
80366;SDS011;69680;42.660;23.366;2023-04-25T22:56:14;10.32;;;4.95;;
80366;SDS011;69680;42.660;23.366;2023-04-25T22:58:41;11.55;;;5.20;;
80366;SDS011;69680;42.660;23.366;2023-04-25T23:01:07;8.95;;;4.55;;
80366;SDS011;69680;42.660;23.366;2023-04-25T23:03:35;12.93;;;5.20;;
80366;SDS011;69680;42.660;23.366;2023-04-25T23:06:00;11.60;;;5.03;;
80366;SDS011;69680;42.660;23.366;2023-04-25T23:08:26;10.10;;;5.63;;
80366;SDS011;69680;42.660;23.366;2023-04-25T23:10:52;11.95;;;5.50;;
80366;SDS011;69680;42.660;23.366;2023-04-25T23:13:19;10.05;;;5.30;;
80366;SDS011;69680;42.660;23.366;2023-04-25T23:15:45;10.07;;;4.82;;
80366;SDS011;69680;42.660;23.366;2023-04-25T23:18:11;11.15;;;5.25;;
80366;SDS011;69680;42.660;23.366;2023-04-25T23:20:37;12.30;;;5.47;;
80366;SDS011;69680;42.660;23.366;2023-04-25T23:23:03;11.80;;;5.32;;
80366;SDS011;69680;42.660;23.366;2023-04-25T23:25:29;13.25;;;5.55;;
80366;SDS011;69680;42.660;23.366;2023-04-25T23:27:56;12.18;;;5.45;;
80366;SDS011;69680;42.660;23.366;2023-04-25T23:30:22;11.48;;;5.20;;
80366;SDS011;69680;42.660;23.366;2023-04-25T23:32:48;10.45;;;5.35;;
80366;SDS011;69680;42.660;23.366;2023-04-25T23:35:14;12.95;;;5.25;;
80366;SDS011;69680;42.660;23.366;2023-04-25T23:37:40;12.02;;;5.43;;
80366;SDS011;69680;42.660;23.366;2023-04-25T23:40:07;13.60;;;5.63;;
80366;SDS011;69680;42.660;23.366;2023-04-25T23:42:36;10.77;;;5.05;;
80366;SDS011;69680;42.660;23.366;2023-04-25T23:45:04;10.93;;;5.28;;
80366;SDS011;69680;42.660;23.366;2023-04-25T23:47:31;13.75;;;5.63;;
80366;SDS011;69680;42.660;23.366;2023-04-25T23:49:57;11.10;;;5.38;;
80366;SDS011;69680;42.660;23.366;2023-04-25T23:52:23;11.68;;;5.55;;
80366;SDS011;69680;42.660;23.366;2023-04-25T23:54:48;13.50;;;5.38;;
80366;SDS011;69680;42.660;23.366;2023-04-25T23:57:15;13.48;;;6.38;;
80366;SDS011;69680;42.660;23.366;2023-04-25T23:59:41;11.50;;;5.63;;
